sensor_id;sensor_type;location;lat;lon;timestamp;pressure;altitude;pressure_sealevel;temperature;humidity
21182;BME280;10749;46.296;7.524;2023-04-08T00:00:00;95029.16;;;7.47;42.11
21182;BME280;10749;46.296;7.524;2023-04-08T00:02:25;95023.25;;;7.45;41.93
21182;BME280;10749;46.296;7.524;2023-04-08T00:04:51;95029.47;;;7.43;41.39
21182;BME280;10749;46.296;7.524;2023-04-08T00:07:16;95024.38;;;7.42;41.34
21182;BME280;10749;46.296;7.524;2023-04-08T00:09:41;95026.34;;;7.40;41.58
21182;BME280;10749;46.296;7.524;2023-04-08T00:12:06;95035.03;;;7.32;42.08
21182;BME280;10749;46.296;7.524;2023-04-08T00:14:32;95020.03;;;7.33;42.02
21182;BME280;10749;46.296;7.524;2023-04-08T00:16:57;95030.56;;;7.33;42.34
21182;BME280;10749;46.296;7.524;2023-04-08T00:19:22;95030.88;;;7.30;42.06
21182;BME280;10749;46.296;7.524;2023-04-08T00:21:48;95023.44;;;7.25;42.43
21182;BME280;10749;46.296;7.524;2023-04-08T00:24:13;95024.13;;;7.27;42.57
21182;BME280;10749;46.296;7.524;2023-04-08T00:26:38;95021.50;;;7.27;42.21
21182;BME280;10749;46.296;7.524;2023-04-08T00:29:03;95023.16;;;7.28;42.23
21182;BME280;10749;46.296;7.524;2023-04-08T00:31:29;95021.50;;;7.27;42.44
21182;BME280;10749;46.296;7.524;2023-04-08T00:33:55;95017.97;;;7.19;42.64
21182;BME280;10749;46.296;7.524;2023-04-08T00:36:20;95012.19;;;7.15;42.38
21182;BME280;10749;46.296;7.524;2023-04-08T00:38:46;95015.50;;;7.17;42.54
21182;BME280;10749;46.296;7.524;2023-04-08T00:41:12;95013.50;;;7.11;42.85
21182;BME280;10749;46.296;7.524;2023-04-08T00:43:37;95017.09;;;7.10;42.92
21182;BME280;10749;46.296;7.524;2023-04-08T00:46:03;95008.22;;;7.11;42.66
21182;BME280;10749;46.296;7.524;2023-04-08T00:48:29;95017.09;;;7.10;42.82
21182;BME280;10749;46.296;7.524;2023-04-08T00:50:55;95015.91;;;7.05;43.05
21182;BME280;10749;46.296;7.524;2023-04-08T00:53:21;95012.81;;;7.09;42.99
21182;BME280;10749;46.296;7.524;2023-04-08T00:55:46;95015.75;;;7.06;42.76
21182;BME280;10749;46.296;7.524;2023-04-08T00:58:12;95007.34;;;7.03;42.97
21182;BME280;10749;46.296;7.524;2023-04-08T01:00:44;95018.00;;;7.01;43.11
21182;BME280;10749;46.296;7.524;2023-04-08T01:03:23;95015.31;;;6.93;43.48
21182;BME280;10749;46.296;7.524;2023-04-08T01:08:28;95017.13;;;6.92;43.43
21182;BME280;10749;46.296;7.524;2023-04-08T01:10:58;95013.31;;;6.87;43.44
21182;BME280;10749;46.296;7.524;2023-04-08T01:13:29;95022.84;;;6.88;43.33
21182;BME280;10749;46.296;7.524;2023-04-08T01:15:55;95017.75;;;6.86;43.31
21182;BME280;10749;46.296;7.524;2023-04-08T01:18:21;95018.88;;;6.84;43.35
21182;BME280;10749;46.296;7.524;2023-04-08T01:20:48;95024.13;;;6.84;43.43
21182;BME280;10749;46.296;7.524;2023-04-08T01:25:56;95018.88;;;6.84;43.34
21182;BME280;10749;46.296;7.524;2023-04-08T01:28:23;95015.56;;;6.82;43.45
21182;BME280;10749;46.296;7.524;2023-04-08T01:30:52;95021.16;;;6.79;43.63
21182;BME280;10749;46.296;7.524;2023-04-08T01:33:20;95017.84;;;6.77;43.09
21182;BME280;10749;46.296;7.524;2023-04-08T01:35:46;95015.66;;;6.72;43.33
21182;BME280;10749;46.296;7.524;2023-04-08T01:38:17;95023.84;;;6.69;43.72
21182;BME280;10749;46.296;7.524;2023-04-08T01:40:43;95024.31;;;6.65;43.68
21182;BME280;10749;46.296;7.524;2023-04-08T01:43:12;95014.09;;;6.62;43.63
21182;BME280;10749;46.296;7.524;2023-04-08T01:45:39;95017.69;;;6.61;43.81
21182;BME280;10749;46.296;7.524;2023-04-08T01:48:04;95020.19;;;6.62;43.68
21182;BME280;10749;46.296;7.524;2023-04-08T01:50:31;95021.16;;;6.61;43.47
21182;BME280;10749;46.296;7.524;2023-04-08T01:52:59;95020.31;;;6.61;43.83
21182;BME280;10749;46.296;7.524;2023-04-08T01:55:25;95025.72;;;6.59;43.97
21182;BME280;10749;46.296;7.524;2023-04-08T01:57:52;95023.47;;;6.64;43.97
21182;BME280;10749;46.296;7.524;2023-04-08T02:00:21;95027.91;;;6.64;43.98
21182;BME280;10749;46.296;7.524;2023-04-08T02:02:48;95026.25;;;6.63;44.03
21182;BME280;10749;46.296;7.524;2023-04-08T02:05:14;95026.72;;;6.58;44.35
21182;BME280;10749;46.296;7.524;2023-04-08T02:07:39;95026.56;;;6.60;44.22
21182;BME280;10749;46.296;7.524;2023-04-08T02:10:05;95032.50;;;6.62;43.93
21182;BME280;10749;46.296;7.524;2023-04-08T02:12:32;95030.84;;;6.61;43.78
21182;BME280;10749;46.296;7.524;2023-04-08T02:14:57;95030.97;;;6.59;43.13
21182;BME280;10749;46.296;7.524;2023-04-08T02:17:28;95029.19;;;6.60;43.21
21182;BME280;10749;46.296;7.524;2023-04-08T02:20:15;95036.41;;;6.58;43.57
21182;BME280;10749;46.296;7.524;2023-04-08T02:22:47;95038.75;;;6.61;43.69
21182;BME280;10749;46.296;7.524;2023-04-08T02:25:15;95030.47;;;6.56;43.62
21182;BME280;10749;46.296;7.524;2023-04-08T02:27:41;95035.34;;;6.50;44.04
21182;BME280;10749;46.296;7.524;2023-04-08T02:30:09;95032.44;;;6.54;44.00
21182;BME280;10749;46.296;7.524;2023-04-08T02:32:35;95044.31;;;6.58;44.09
21182;BME280;10749;46.296;7.524;2023-04-08T02:35:02;95040.16;;;6.55;44.00
21182;BME280;10749;46.296;7.524;2023-04-08T02:37:29;95042.97;;;6.54;44.16
21182;BME280;10749;46.296;7.524;2023-04-08T02:39:54;95042.88;;;6.45;44.25
21182;BME280;10749;46.296;7.524;2023-04-08T02:42:20;95035.44;;;6.41;44.38
21182;BME280;10749;46.296;7.524;2023-04-08T02:44:45;95035.88;;;6.36;44.27
21182;BME280;10749;46.296;7.524;2023-04-08T02:47:11;95044.44;;;6.38;44.58
21182;BME280;10749;46.296;7.524;2023-04-08T02:49:36;95045.25;;;6.39;44.49
21182;BME280;10749;46.296;7.524;2023-04-08T02:52:01;95045.44;;;6.37;44.27
21182;BME280;10749;46.296;7.524;2023-04-08T02:54:27;95047.22;;;6.37;44.54
21182;BME280;10749;46.296;7.524;2023-04-08T02:56:52;95044.59;;;6.37;44.58
21182;BME280;10749;46.296;7.524;2023-04-08T02:59:17;95044.44;;;6.38;44.49
21182;BME280;10749;46.296;7.524;2023-04-08T03:01:43;95048.34;;;6.34;44.46
21182;BME280;10749;46.296;7.524;2023-04-08T03:04:08;95050.31;;;6.32;44.52
21182;BME280;10749;46.296;7.524;2023-04-08T03:06:33;95041.59;;;6.32;44.46
21182;BME280;10749;46.296;7.524;2023-04-08T03:08:58;95046.97;;;6.30;44.67
21182;BME280;10749;46.296;7.524;2023-04-08T03:11:24;95044.50;;;6.29;44.64
21182;BME280;10749;46.296;7.524;2023-04-08T03:13:50;95049.22;;;6.25;44.71
21182;BME280;10749;46.296;7.524;2023-04-08T03:16:15;95048.69;;;6.22;44.85
21182;BME280;10749;46.296;7.524;2023-04-08T03:18:40;95044.25;;;6.22;45.03
21182;BME280;10749;46.296;7.524;2023-04-08T03:21:05;95042.59;;;6.21;44.82
21182;BME280;10749;46.296;7.524;2023-04-08T03:23:31;95044.56;;;6.19;45.14
21182;BME280;10749;46.296;7.524;2023-04-08T03:25:56;95046.50;;;6.17;44.93
21182;BME280;10749;46.296;7.524;2023-04-08T03:28:21;95048.59;;;6.14;44.87
21182;BME280;10749;46.296;7.524;2023-04-08T03:30:47;95050.13;;;6.16;44.41
21182;BME280;10749;46.296;7.524;2023-04-08T03:33:13;95045.84;;;6.15;44.42
21182;BME280;10749;46.296;7.524;2023-04-08T03:35:38;95041.41;;;6.16;44.60
21182;BME280;10749;46.296;7.524;2023-04-08T03:38:03;95050.56;;;6.12;44.92
21182;BME280;10749;46.296;7.524;2023-04-08T03:40:29;95053.78;;;6.06;44.75
21182;BME280;10749;46.296;7.524;2023-04-08T03:42:54;95046.59;;;6.08;44.93
21182;BME280;10749;46.296;7.524;2023-04-08T03:45:20;95046.72;;;6.06;45.25
21182;BME280;10749;46.296;7.524;2023-04-08T03:47:45;95051.97;;;6.06;45.10
21182;BME280;10749;46.296;7.524;2023-04-08T03:50:10;95043.69;;;6.01;45.11
21182;BME280;10749;46.296;7.524;2023-04-08T03:52:36;95045.28;;;5.94;45.38
21182;BME280;10749;46.296;7.524;2023-04-08T03:55:01;95048.88;;;5.93;45.52
21182;BME280;10749;46.296;7.524;2023-04-08T03:57:26;95042.41;;;5.87;45.59
21182;BME280;10749;46.296;7.524;2023-04-08T03:59:52;95038.66;;;5.90;45.41
21182;BME280;10749;46.296;7.524;2023-04-08T04:02:17;95041.16;;;5.91;45.75
21182;BME280;10749;46.296;7.524;2023-04-08T04:04:42;95044.75;;;5.90;45.70
21182;BME280;10749;46.296;7.524;2023-04-08T04:07:08;95041.97;;;5.82;45.77
21182;BME280;10749;46.296;7.524;2023-04-08T04:09:33;95052.50;;;5.82;45.44
21182;BME280;10749;46.296;7.524;2023-04-08T04:11:59;95050.00;;;5.81;45.74
21182;BME280;10749;46.296;7.524;2023-04-08T04:14:24;95046.72;;;5.79;45.97
21182;BME280;10749;46.296;7.524;2023-04-08T04:16:49;95053.59;;;5.80;45.86
21182;BME280;10749;46.296;7.524;2023-04-08T04:19:15;95056.91;;;5.82;45.76
21182;BME280;10749;46.296;7.524;2023-04-08T04:21:41;95060.25;;;5.84;45.74
21182;BME280;10749;46.296;7.524;2023-04-08T04:24:07;95055.78;;;5.84;45.80
21182;BME280;10749;46.296;7.524;2023-04-08T04:26:32;95054.41;;;5.90;45.52
21182;BME280;10749;46.296;7.524;2023-04-08T04:28:57;95055.78;;;5.94;45.81
21182;BME280;10749;46.296;7.524;2023-04-08T04:31:23;95063.53;;;5.86;45.55
21182;BME280;10749;46.296;7.524;2023-04-08T04:33:52;95060.25;;;5.84;45.79
21182;BME280;10749;46.296;7.524;2023-04-08T04:36:17;95069.66;;;5.86;45.90
21182;BME280;10749;46.296;7.524;2023-04-08T04:38:43;95072.38;;;5.85;45.86
21182;BME280;10749;46.296;7.524;2023-04-08T04:41:09;95081.53;;;5.81;46.03
21182;BME280;10749;46.296;7.524;2023-04-08T04:43:35;95074.16;;;5.84;45.82
21182;BME280;10749;46.296;7.524;2023-04-08T04:46:00;95075.72;;;5.87;45.63
21182;BME280;10749;46.296;7.524;2023-04-08T04:48:26;95079.59;;;5.83;46.11
21182;BME280;10749;46.296;7.524;2023-04-08T04:50:55;95078.88;;;5.81;46.20
21182;BME280;10749;46.296;7.524;2023-04-08T04:53:21;95079.31;;;5.76;46.08
21182;BME280;10749;46.296;7.524;2023-04-08T04:55:46;95076.25;;;5.81;45.90
21182;BME280;10749;46.296;7.524;2023-04-08T04:58:11;95083.06;;;5.74;46.20
21182;BME280;10749;46.296;7.524;2023-04-08T05:00:36;95080.44;;;5.74;46.34
21182;BME280;10749;46.296;7.524;2023-04-08T05:03:02;95082.13;;;5.75;46.25
21182;BME280;10749;46.296;7.524;2023-04-08T05:05:27;95087.63;;;5.72;46.43
21182;BME280;10749;46.296;7.524;2023-04-08T05:07:52;95093.91;;;5.61;46.52
21182;BME280;10749;46.296;7.524;2023-04-08T05:10:18;95099.84;;;5.63;46.31
21182;BME280;10749;46.296;7.524;2023-04-08T05:12:43;95088.53;;;5.63;46.23
21182;BME280;10749;46.296;7.524;2023-04-08T05:15:08;95095.03;;;5.58;46.34
21182;BME280;10749;46.296;7.524;2023-04-08T05:17:34;95090.19;;;5.54;46.71
21182;BME280;10749;46.296;7.524;2023-04-08T05:20:00;95091.59;;;5.48;46.94
21182;BME280;10749;46.296;7.524;2023-04-08T05:22:25;95100.16;;;5.50;46.79
21182;BME280;10749;46.296;7.524;2023-04-08T05:24:50;95097.38;;;5.52;46.49
21182;BME280;10749;46.296;7.524;2023-04-08T05:27:15;95101.91;;;5.59;46.27
21182;BME280;10749;46.296;7.524;2023-04-08T05:29:41;95097.25;;;5.53;46.75
21182;BME280;10749;46.296;7.524;2023-04-08T05:32:06;95103.47;;;5.52;47.09
21182;BME280;10749;46.296;7.524;2023-04-08T05:34:31;95098.50;;;5.49;47.04
21182;BME280;10749;46.296;7.524;2023-04-08T05:36:57;95099.03;;;5.53;46.62
21182;BME280;10749;46.296;7.524;2023-04-08T05:39:22;95103.56;;;5.61;46.39
21182;BME280;10749;46.296;7.524;2023-04-08T05:41:47;95099.69;;;5.65;46.67
21182;BME280;10749;46.296;7.524;2023-04-08T05:44:13;95101.47;;;5.74;46.40
21182;BME280;10749;46.296;7.524;2023-04-08T05:46:38;95112.25;;;5.71;46.68
21182;BME280;10749;46.296;7.524;2023-04-08T05:49:04;95108.75;;;5.80;46.82
21182;BME280;10749;46.296;7.524;2023-04-08T05:51:29;95106.41;;;5.86;46.84
21182;BME280;10749;46.296;7.524;2023-04-08T05:53:54;95102.75;;;5.97;46.89
21182;BME280;10749;46.296;7.524;2023-04-08T05:56:20;95109.38;;;6.01;46.94
21182;BME280;10749;46.296;7.524;2023-04-08T05:58:45;95113.78;;;6.10;47.20
21182;BME280;10749;46.296;7.524;2023-04-08T06:01:11;95117.75;;;6.14;47.63
21182;BME280;10749;46.296;7.524;2023-04-08T06:03:36;95126.03;;;6.19;47.44
21182;BME280;10749;46.296;7.524;2023-04-08T06:06:02;95116.97;;;6.31;46.88
21182;BME280;10749;46.296;7.524;2023-04-08T06:08:27;95126.44;;;6.42;46.74
21182;BME280;10749;46.296;7.524;2023-04-08T06:10:52;95127.69;;;6.47;46.99
21182;BME280;10749;46.296;7.524;2023-04-08T06:13:17;95130.41;;;6.56;46.64
21182;BME280;10749;46.296;7.524;2023-04-08T06:15:45;95134.31;;;6.69;46.88
21182;BME280;10749;46.296;7.524;2023-04-08T06:18:10;95139.06;;;6.83;47.00
21182;BME280;10749;46.296;7.524;2023-04-08T06:20:35;95140.03;;;7.00;47.04
21182;BME280;10749;46.296;7.524;2023-04-08T06:23:01;95135.84;;;7.07;47.11
21182;BME280;10749;46.296;7.524;2023-04-08T06:25:26;95138.84;;;7.12;47.53
21182;BME280;10749;46.296;7.524;2023-04-08T06:27:51;95138.38;;;7.17;47.80
21182;BME280;10749;46.296;7.524;2023-04-08T06:30:17;95129.19;;;7.21;47.70
21182;BME280;10749;46.296;7.524;2023-04-08T06:32:42;95134.78;;;7.18;47.99
21182;BME280;10749;46.296;7.524;2023-04-08T06:35:07;95130.41;;;7.26;48.11
21182;BME280;10749;46.296;7.524;2023-04-08T06:37:33;95123.81;;;7.48;47.98
21182;BME280;10749;46.296;7.524;2023-04-08T06:40:03;95124.13;;;7.71;47.78
21182;BME280;10749;46.296;7.524;2023-04-08T06:42:28;95128.97;;;7.83;47.90
21182;BME280;10749;46.296;7.524;2023-04-08T06:44:54;95125.28;;;7.94;47.59
21182;BME280;10749;46.296;7.524;2023-04-08T06:47:19;95125.41;;;7.93;47.83
21182;BME280;10749;46.296;7.524;2023-04-08T06:49:44;95126.25;;;7.93;48.26
21182;BME280;10749;46.296;7.524;2023-04-08T06:52:10;95120.06;;;8.10;47.58
21182;BME280;10749;46.296;7.524;2023-04-08T06:54:35;95114.47;;;8.13;47.18
21182;BME280;10749;46.296;7.524;2023-04-08T06:57:01;95119.44;;;8.16;47.34
21182;BME280;10749;46.296;7.524;2023-04-08T06:59:26;95130.81;;;8.17;47.80
21182;BME280;10749;46.296;7.524;2023-04-08T07:01:51;95119.63;;;8.23;47.75
21182;BME280;10749;46.296;7.524;2023-04-08T07:04:16;95124.00;;;8.32;47.67
21182;BME280;10749;46.296;7.524;2023-04-08T07:06:42;95123.03;;;8.41;47.67
21182;BME280;10749;46.296;7.524;2023-04-08T07:09:07;95122.59;;;8.62;47.11
21182;BME280;10749;46.296;7.524;2023-04-08T07:11:33;95115.84;;;8.67;47.56
21182;BME280;10749;46.296;7.524;2023-04-08T07:13:58;95121.47;;;8.72;47.54
21182;BME280;10749;46.296;7.524;2023-04-08T07:16:23;95134.34;;;8.84;47.29
21182;BME280;10749;46.296;7.524;2023-04-08T07:18:49;95126.81;;;8.97;46.51
21182;BME280;10749;46.296;7.524;2023-04-08T07:21:15;95122.34;;;8.89;46.95
21182;BME280;10749;46.296;7.524;2023-04-08T07:23:41;95135.22;;;8.92;47.10
21182;BME280;10749;46.296;7.524;2023-04-08T07:26:06;95130.44;;;9.04;46.53
21182;BME280;10749;46.296;7.524;2023-04-08T07:28:31;95136.06;;;9.09;46.54
21182;BME280;10749;46.296;7.524;2023-04-08T07:31:14;95135.72;;;9.04;47.16
21182;BME280;10749;46.296;7.524;2023-04-08T07:33:40;95133.91;;;9.12;47.30
21182;BME280;10749;46.296;7.524;2023-04-08T07:36:05;95139.53;;;9.25;47.55
21182;BME280;10749;46.296;7.524;2023-04-08T07:38:31;95142.84;;;9.36;47.32
21182;BME280;10749;46.296;7.524;2023-04-08T07:40:56;95136.91;;;9.34;47.47
21182;BME280;10749;46.296;7.524;2023-04-08T07:43:22;95136.25;;;9.48;47.33
21182;BME280;10749;46.296;7.524;2023-04-08T07:45:47;95137.38;;;9.61;46.67
21182;BME280;10749;46.296;7.524;2023-04-08T07:48:12;95132.28;;;9.60;47.15
21182;BME280;10749;46.296;7.524;2023-04-08T07:50:38;95127.00;;;9.60;47.21
21182;BME280;10749;46.296;7.524;2023-04-08T07:53:03;95136.88;;;9.58;47.44
21182;BME280;10749;46.296;7.524;2023-04-08T07:55:32;95130.59;;;9.75;47.45
21182;BME280;10749;46.296;7.524;2023-04-08T07:57:57;95136.19;;;9.88;47.26
21182;BME280;10749;46.296;7.524;2023-04-08T08:00:23;95131.25;;;9.85;47.20
21182;BME280;10749;46.296;7.524;2023-04-08T08:02:48;95133.88;;;9.93;47.12
21182;BME280;10749;46.296;7.524;2023-04-08T08:05:13;95138.50;;;9.91;47.17
21182;BME280;10749;46.296;7.524;2023-04-08T08:07:39;95135.19;;;9.97;47.15
21182;BME280;10749;46.296;7.524;2023-04-08T08:10:05;95131.84;;;10.11;46.88
21182;BME280;10749;46.296;7.524;2023-04-08T08:12:30;95126.91;;;10.16;46.60
21182;BME280;10749;46.296;7.524;2023-04-08T08:14:56;95126.91;;;10.16;46.25
21182;BME280;10749;46.296;7.524;2023-04-08T08:17:23;95127.88;;;10.15;46.25
21182;BME280;10749;46.296;7.524;2023-04-08T08:19:49;95124.88;;;10.10;46.30
21182;BME280;10749;46.296;7.524;2023-04-08T08:22:14;95127.25;;;10.05;46.71
21182;BME280;10749;46.296;7.524;2023-04-08T08:24:40;95124.56;;;10.13;46.59
21182;BME280;10749;46.296;7.524;2023-04-08T08:27:05;95124.94;;;10.18;46.75
21182;BME280;10749;46.296;7.524;2023-04-08T08:29:30;95119.84;;;10.40;46.50
21182;BME280;10749;46.296;7.524;2023-04-08T08:31:56;95127.94;;;10.46;46.73
21182;BME280;10749;46.296;7.524;2023-04-08T08:34:21;95125.09;;;10.56;46.84
21182;BME280;10749;46.296;7.524;2023-04-08T08:36:47;95121.41;;;10.65;46.85
21182;BME280;10749;46.296;7.524;2023-04-08T08:39:12;95127.72;;;10.64;46.54
21182;BME280;10749;46.296;7.524;2023-04-08T08:41:37;95125.69;;;10.66;45.41
21182;BME280;10749;46.296;7.524;2023-04-08T08:44:07;95119.47;;;10.59;45.78
21182;BME280;10749;46.296;7.524;2023-04-08T08:46:33;95130.38;;;10.56;46.16
21182;BME280;10749;46.296;7.524;2023-04-08T08:48:59;95118.75;;;10.65;46.57
21182;BME280;10749;46.296;7.524;2023-04-08T08:51:24;95124.31;;;10.78;46.17
21182;BME280;10749;46.296;7.524;2023-04-08T08:53:51;95125.25;;;10.85;45.72
21182;BME280;10749;46.296;7.524;2023-04-08T08:56:17;95117.88;;;10.81;46.08
21182;BME280;10749;46.296;7.524;2023-04-08T08:58:42;95120.69;;;10.79;46.01
21182;BME280;10749;46.296;7.524;2023-04-08T09:01:30;95118.25;;;11.00;45.98
21182;BME280;10749;46.296;7.524;2023-04-08T09:06:37;95107.16;;;11.20;45.78
21182;BME280;10749;46.296;7.524;2023-04-08T09:09:03;95108.59;;;11.30;45.61
21182;BME280;10749;46.296;7.524;2023-04-08T09:11:35;95106.50;;;11.40;45.53
21182;BME280;10749;46.296;7.524;2023-04-08T09:14:01;95101.97;;;11.49;45.59
21182;BME280;10749;46.296;7.524;2023-04-08T09:16:27;95091.81;;;11.52;45.49
21182;BME280;10749;46.296;7.524;2023-04-08T09:18:54;95103.34;;;11.59;45.19
21182;BME280;10749;46.296;7.524;2023-04-08T09:21:22;95100.97;;;11.50;44.81
21182;BME280;10749;46.296;7.524;2023-04-08T09:23:50;95086.75;;;11.43;44.50
21182;BME280;10749;46.296;7.524;2023-04-08T09:26:18;95084.44;;;11.25;44.29
21182;BME280;10749;46.296;7.524;2023-04-08T09:29:03;95090.28;;;11.21;44.79
21182;BME280;10749;46.296;7.524;2023-04-08T09:31:31;95086.84;;;11.35;45.11
21182;BME280;10749;46.296;7.524;2023-04-08T09:33:58;95075.56;;;11.55;44.66
21182;BME280;10749;46.296;7.524;2023-04-08T09:36:25;95081.69;;;11.56;44.62
21182;BME280;10749;46.296;7.524;2023-04-08T09:38:54;95070.84;;;11.66;44.95
21182;BME280;10749;46.296;7.524;2023-04-08T09:41:20;95071.00;;;11.64;44.72
21182;BME280;10749;46.296;7.524;2023-04-08T09:43:52;95074.03;;;11.61;44.49
21182;BME280;10749;46.296;7.524;2023-04-08T09:46:25;95068.63;;;11.69;44.34
21182;BME280;10749;46.296;7.524;2023-04-08T09:49:00;95065.00;;;11.70;44.68
21182;BME280;10749;46.296;7.524;2023-04-08T09:51:28;95062.28;;;11.78;44.56
21182;BME280;10749;46.296;7.524;2023-04-08T09:54:02;95063.31;;;11.92;44.08
21182;BME280;10749;46.296;7.524;2023-04-08T09:56:36;95057.91;;;12.15;44.41
21182;BME280;10749;46.296;7.524;2023-04-08T09:59:13;95062.00;;;12.32;44.42
21182;BME280;10749;46.296;7.524;2023-04-08T10:01:44;95054.03;;;12.32;44.25
21182;BME280;10749;46.296;7.524;2023-04-08T10:04:13;95055.41;;;12.42;44.26
21182;BME280;10749;46.296;7.524;2023-04-08T10:06:40;95051.72;;;12.58;44.26
21182;BME280;10749;46.296;7.524;2023-04-08T10:09:06;95046.66;;;12.63;43.83
21182;BME280;10749;46.296;7.524;2023-04-08T10:11:32;95048.97;;;12.66;43.96
21182;BME280;10749;46.296;7.524;2023-04-08T10:13:58;95043.53;;;12.74;44.02
21182;BME280;10749;46.296;7.524;2023-04-08T10:16:24;95037.84;;;12.77;43.74
21182;BME280;10749;46.296;7.524;2023-04-08T10:18:55;95041.47;;;12.91;43.34
21182;BME280;10749;46.296;7.524;2023-04-08T10:21:38;95029.75;;;13.07;43.42
21182;BME280;10749;46.296;7.524;2023-04-08T10:24:08;95031.19;;;13.24;43.23
21182;BME280;10749;46.296;7.524;2023-04-08T10:26:35;95027.50;;;13.25;42.94
21182;BME280;10749;46.296;7.524;2023-04-08T10:31:42;95021.91;;;13.41;42.49
21182;BME280;10749;46.296;7.524;2023-04-08T10:34:18;95022.34;;;13.45;42.53
21182;BME280;10749;46.296;7.524;2023-04-08T10:36:44;95017.84;;;13.45;42.35
21182;BME280;10749;46.296;7.524;2023-04-08T10:39:09;95009.44;;;13.69;42.25
21182;BME280;10749;46.296;7.524;2023-04-08T10:41:41;95013.03;;;13.90;42.36
21182;BME280;10749;46.296;7.524;2023-04-08T10:44:21;95014.09;;;13.95;41.81
21182;BME280;10749;46.296;7.524;2023-04-08T10:46:48;95010.09;;;14.12;41.62
21182;BME280;10749;46.296;7.524;2023-04-08T10:49:15;95003.63;;;14.28;41.56
21182;BME280;10749;46.296;7.524;2023-04-08T10:51:41;95003.28;;;14.38;41.08
21182;BME280;10749;46.296;7.524;2023-04-08T10:54:10;94996.78;;;14.53;41.09
21182;BME280;10749;46.296;7.524;2023-04-08T10:56:46;94992.72;;;14.70;40.71
21182;BME280;10749;46.296;7.524;2023-04-08T10:59:13;94991.34;;;14.88;41.22
21182;BME280;10749;46.296;7.524;2023-04-08T11:01:43;94998.94;;;14.91;41.27
21182;BME280;10749;46.296;7.524;2023-04-08T11:04:13;94977.63;;;14.91;41.40
21182;BME280;10749;46.296;7.524;2023-04-08T11:06:41;94982.94;;;15.04;41.77
21182;BME280;10749;46.296;7.524;2023-04-08T11:09:07;94984.19;;;15.08;41.34
21182;BME280;10749;46.296;7.524;2023-04-08T11:11:33;94981.53;;;15.21;41.00
21182;BME280;10749;46.296;7.524;2023-04-08T11:13:58;94974.38;;;15.35;40.91
21182;BME280;10749;46.296;7.524;2023-04-08T11:16:25;94970.28;;;15.58;41.01
21182;BME280;10749;46.296;7.524;2023-04-08T11:18:52;94967.81;;;15.63;41.11
21182;BME280;10749;46.296;7.524;2023-04-08T11:21:18;94964.13;;;15.64;40.61
21182;BME280;10749;46.296;7.524;2023-04-08T11:23:44;94966.16;;;15.76;40.74
21182;BME280;10749;46.296;7.524;2023-04-08T11:26:10;94973.09;;;15.90;40.12
21182;BME280;10749;46.296;7.524;2023-04-08T11:28:35;94958.94;;;15.89;38.73
21182;BME280;10749;46.296;7.524;2023-04-08T11:31:01;94959.53;;;15.91;39.17
21182;BME280;10749;46.296;7.524;2023-04-08T11:33:30;94961.53;;;16.09;39.13
21182;BME280;10749;46.296;7.524;2023-04-08T11:35:55;94952.44;;;16.30;39.17
21182;BME280;10749;46.296;7.524;2023-04-08T11:38:22;94946.84;;;16.38;39.44
21182;BME280;10749;46.296;7.524;2023-04-08T11:40:58;94952.38;;;16.36;39.02
21182;BME280;10749;46.296;7.524;2023-04-08T11:43:23;94940.25;;;16.40;38.59
21182;BME280;10749;46.296;7.524;2023-04-08T11:45:49;94936.69;;;16.53;38.08
21182;BME280;10749;46.296;7.524;2023-04-08T11:48:15;94921.38;;;16.73;38.71
21182;BME280;10749;46.296;7.524;2023-04-08T11:50:42;94932.31;;;16.72;37.54
21182;BME280;10749;46.296;7.524;2023-04-08T11:53:21;94925.50;;;16.76;37.31
21182;BME280;10749;46.296;7.524;2023-04-08T11:55:49;94922.47;;;16.97;37.74
21182;BME280;10749;46.296;7.524;2023-04-08T11:58:14;94920.75;;;17.09;38.08
21182;BME280;10749;46.296;7.524;2023-04-08T12:00:40;94928.59;;;17.04;37.36
21182;BME280;10749;46.296;7.524;2023-04-08T12:03:07;94912.72;;;17.09;37.90
21182;BME280;10749;46.296;7.524;2023-04-08T12:05:32;94909.16;;;17.15;37.38
21182;BME280;10749;46.296;7.524;2023-04-08T12:07:57;94912.81;;;17.21;37.80
21182;BME280;10749;46.296;7.524;2023-04-08T12:10:23;94911.81;;;17.40;37.59
21182;BME280;10749;46.296;7.524;2023-04-08T12:12:49;94910.88;;;17.52;37.49
21182;BME280;10749;46.296;7.524;2023-04-08T12:15:15;94904.94;;;17.50;37.15
21182;BME280;10749;46.296;7.524;2023-04-08T12:17:41;94902.19;;;17.57;36.31
21182;BME280;10749;46.296;7.524;2023-04-08T12:20:08;94896.53;;;17.72;35.20
21182;BME280;10749;46.296;7.524;2023-04-08T12:22:33;94894.63;;;17.97;35.77
21182;BME280;10749;46.296;7.524;2023-04-08T12:24:59;94895.31;;;18.22;36.06
21182;BME280;10749;46.296;7.524;2023-04-08T12:27:24;94888.59;;;18.31;35.43
21182;BME280;10749;46.296;7.524;2023-04-08T12:29:49;94895.81;;;18.31;34.77
21182;BME280;10749;46.296;7.524;2023-04-08T12:32:16;94890.53;;;18.42;34.05
21182;BME280;10749;46.296;7.524;2023-04-08T12:34:41;94884.16;;;18.25;32.77
21182;BME280;10749;46.296;7.524;2023-04-08T12:37:06;94876.22;;;18.49;33.67
21182;BME280;10749;46.296;7.524;2023-04-08T12:39:31;94880.38;;;18.63;33.86
21182;BME280;10749;46.296;7.524;2023-04-08T12:41:57;94870.84;;;18.49;33.42
21182;BME280;10749;46.296;7.524;2023-04-08T12:44:23;94869.53;;;18.39;33.47
21182;BME280;10749;46.296;7.524;2023-04-08T12:46:49;94858.97;;;18.44;34.11
21182;BME280;10749;46.296;7.524;2023-04-08T12:49:14;94869.78;;;18.68;33.44
21182;BME280;10749;46.296;7.524;2023-04-08T12:51:39;94863.78;;;18.84;33.58
21182;BME280;10749;46.296;7.524;2023-04-08T12:54:05;94869.59;;;18.81;32.17
21182;BME280;10749;46.296;7.524;2023-04-08T12:56:31;94861.59;;;19.04;32.45
21182;BME280;10749;46.296;7.524;2023-04-08T12:58:57;94861.13;;;19.07;32.55
21182;BME280;10749;46.296;7.524;2023-04-08T13:01:22;94856.47;;;19.14;32.56
21182;BME280;10749;46.296;7.524;2023-04-08T13:03:48;94851.03;;;19.44;32.67
21182;BME280;10749;46.296;7.524;2023-04-08T13:06:13;94841.56;;;19.65;31.85
21182;BME280;10749;46.296;7.524;2023-04-08T13:08:38;94846.88;;;19.88;31.74
21182;BME280;10749;46.296;7.524;2023-04-08T13:11:04;94843.84;;;19.96;31.15
21182;BME280;10749;46.296;7.524;2023-04-08T13:13:29;94839.66;;;20.28;32.34